createdAt,value
2022-08-10T00:04:54.234Z,9.32
2022-08-10T00:09:57.317Z,10.18
2022-08-10T00:15:00.803Z,10.07
2022-08-10T00:20:08.743Z,10.77
2022-08-10T00:25:11.951Z,10.90
2022-08-10T00:30:14.801Z,11.20
2022-08-10T00:35:17.637Z,10.18
2022-08-10T00:40:37.216Z,10.48
2022-08-10T00:45:40.896Z,9.77
2022-08-10T00:50:43.800Z,11.60
2022-08-10T00:57:12.823Z,9.75
2022-08-10T01:01:11.003Z,9.05
2022-08-10T01:07:06.166Z,9.07
2022-08-10T01:12:38.517Z,8.20
2022-08-10T01:17:57.284Z,7.65
2022-08-10T01:23:29.081Z,7.20
2022-08-10T01:28:56.193Z,7.03
2022-08-10T01:34:04.110Z,6.93
2022-08-10T01:39:08.095Z,6.38
2022-08-10T01:44:20.018Z,6.35
2022-08-10T01:49:24.264Z,6.15
2022-08-10T01:54:28.028Z,5.72
2022-08-10T01:59:36.061Z,5.82
2022-08-10T02:09:57.322Z,6.03
2022-08-10T02:15:05.282Z,6.22
2022-08-10T02:20:22.872Z,6.30
2022-08-10T02:25:41.951Z,5.57
2022-08-10T02:30:48.425Z,5.85
2022-08-10T02:35:55.317Z,6.75
2022-08-10T02:42:18.359Z,4.90
2022-08-10T02:46:30.394Z,4.90
2022-08-10T02:52:08.658Z,5.20
2022-08-10T02:57:25.284Z,4.90
2022-08-10T03:02:46.435Z,4.65
2022-08-10T03:07:54.955Z,7.57
2022-08-10T03:13:02.739Z,9.98
2022-08-10T03:18:06.299Z,12.40
2022-08-10T03:23:15.196Z,14.05
2022-08-10T03:28:20.676Z,12.75
2022-08-10T03:33:27.886Z,10.40
2022-08-10T03:38:30.783Z,10.20
2022-08-10T03:43:34.446Z,8.55
2022-08-10T03:48:49.047Z,7.72
2022-08-10T03:54:05.734Z,8.30
2022-08-10T03:59:12.880Z,7.53
2022-08-10T04:04:22.487Z,7.65
2022-08-10T04:09:53.491Z,7.03
2022-08-10T04:14:54.698Z,6.88
2022-08-10T04:19:58.522Z,7.05
2022-08-10T04:25:05.187Z,7.43
2022-08-10T04:30:08.991Z,7.50
2022-08-10T04:35:12.207Z,6.57
2022-08-10T04:40:28.424Z,7.05
2022-08-10T04:45:49.283Z,6.85
2022-08-10T04:50:54.844Z,8.05
2022-08-10T04:55:57.634Z,7.13
2022-08-10T05:01:00.477Z,7.10
2022-08-10T05:06:03.494Z,7.93
2022-08-10T05:11:06.334Z,8.10
2022-08-10T05:16:09.096Z,8.07
2022-08-10T05:21:52.121Z,8.30
2022-08-10T05:27:00.320Z,9.65
2022-08-10T05:32:09.463Z,6.03
2022-08-10T05:38:09.628Z,5.28
2022-08-10T05:42:35.932Z,6.57
2022-08-10T05:48:54.646Z,7.05
2022-08-10T05:53:59.403Z,7.65
2022-08-10T05:58:25.757Z,7.22
2022-08-10T06:03:34.946Z,7.07
2022-08-10T06:08:39.764Z,7.00
2022-08-10T06:14:13.100Z,6.82
2022-08-10T06:19:19.618Z,6.85
2022-08-10T06:24:25.327Z,7.40
2022-08-10T06:29:33.742Z,8.13
2022-08-10T06:34:40.142Z,7.32
2022-08-10T06:39:43.511Z,7.60
2022-08-10T06:44:56.345Z,7.20
2022-08-10T06:50:04.960Z,7.88
2022-08-10T06:55:16.634Z,15.00
2022-08-10T07:00:21.878Z,8.63
2022-08-10T07:05:27.001Z,12.15
2022-08-10T07:10:45.581Z,8.20
2022-08-10T07:15:59.517Z,8.68
2022-08-10T07:21:04.866Z,8.50
2022-08-10T07:26:10.226Z,9.50
2022-08-10T07:31:54.958Z,8.65
2022-08-10T07:36:40.045Z,9.15
2022-08-10T07:46:47.996Z,8.38
2022-08-10T07:51:54.443Z,8.80
2022-08-10T07:57:02.509Z,7.68
2022-08-10T08:02:07.084Z,9.15
2022-08-10T08:07:09.861Z,8.93
2022-08-10T08:12:13.702Z,9.13
2022-08-10T08:17:17.243Z,8.30
2022-08-10T08:24:05.291Z,8.52
2022-08-10T08:27:47.901Z,8.32
2022-08-10T08:33:00.238Z,6.88
2022-08-10T08:38:32.361Z,6.50
2022-08-10T08:43:58.823Z,6.18
2022-08-10T08:49:09.530Z,6.30
2022-08-10T08:54:15.299Z,6.57
2022-08-10T08:59:51.541Z,6.93
2022-08-10T09:05:00.362Z,6.20
2022-08-10T09:10:27.762Z,5.88
2022-08-10T09:15:57.423Z,6.13
2022-08-10T09:21:55.071Z,6.13
2022-08-10T09:27:13.729Z,5.53
2022-08-10T09:36:16.275Z,6.20
2022-08-10T09:38:01.135Z,6.20
2022-08-10T09:43:25.190Z,6.03
2022-08-10T09:48:42.248Z,5.03
2022-08-10T09:53:54.602Z,5.38
2022-08-10T10:00:00.733Z,5.97
2022-08-10T10:05:16.726Z,5.88
2022-08-10T10:10:47.894Z,6.00
2022-08-10T10:16:03.944Z,5.93
2022-08-10T10:21:51.346Z,12.30
2022-08-10T10:27:24.244Z,6.65
2022-08-10T10:32:38.974Z,6.22
2022-08-10T10:43:29.288Z,5.93
2022-08-10T10:48:53.670Z,5.65
2022-08-10T10:54:03.446Z,5.22
2022-08-10T10:59:56.230Z,5.90
2022-08-10T11:05:16.440Z,5.93
2022-08-10T11:10:33.405Z,5.75
2022-08-10T11:15:42.833Z,5.70
2022-08-10T11:21:16.940Z,6.13
2022-08-10T11:26:26.742Z,6.70
2022-08-10T11:31:36.249Z,6.25
2022-08-10T11:36:41.770Z,5.82
2022-08-10T11:42:08.884Z,6.30
2022-08-10T11:47:18.317Z,5.90
2022-08-10T11:52:29.510Z,5.97
2022-08-10T11:57:53.069Z,6.25
2022-08-10T12:03:02.530Z,6.07
2022-08-10T12:10:04.847Z,6.35
2022-08-10T12:14:04.287Z,6.55
2022-08-10T12:19:24.856Z,6.10
2022-08-10T12:24:46.986Z,6.65
2022-08-10T12:29:55.883Z,6.78
2022-08-10T12:35:22.074Z,6.75
2022-08-10T12:40:35.706Z,6.80
2022-08-10T12:45:52.036Z,7.10
2022-08-10T12:51:15.322Z,7.13
2022-08-10T12:56:30.037Z,6.65
2022-08-10T13:02:06.919Z,6.88
2022-08-10T13:12:36.017Z,7.25
2022-08-10T13:17:46.853Z,7.07
2022-08-10T13:22:59.708Z,7.63
2022-08-10T13:28:37.854Z,7.43
2022-08-10T13:34:41.246Z,7.72
2022-08-10T13:38:59.193Z,7.53
2022-08-10T13:44:02.186Z,7.35
2022-08-10T13:49:06.309Z,8.23
2022-08-10T13:54:17.940Z,8.23
2022-08-10T13:59:22.415Z,8.60
2022-08-10T14:04:25.419Z,8.95
2022-08-10T14:09:31.838Z,9.70
2022-08-10T14:14:34.883Z,9.10
2022-08-10T14:19:43.752Z,8.98
2022-08-10T14:24:47.065Z,9.05
2022-08-10T14:29:55.464Z,9.88
2022-08-10T14:36:21.109Z,10.32
2022-08-10T14:40:26.053Z,10.13
2022-08-10T14:45:33.894Z,10.50
2022-08-10T14:50:55.609Z,13.40
2022-08-10T14:56:03.171Z,12.07
2022-08-10T15:01:07.460Z,11.48
2022-08-10T15:06:17.933Z,11.00
2022-08-10T15:12:12.337Z,11.75
2022-08-10T15:16:44.581Z,11.32
2022-08-10T15:21:47.527Z,13.02
2022-08-10T15:27:09.632Z,11.68
2022-08-10T15:32:37.407Z,12.90
2022-08-10T15:37:41.619Z,12.80
2022-08-10T15:42:58.385Z,13.20
2022-08-10T15:48:04.768Z,14.20
2022-08-10T15:53:17.077Z,13.20
2022-08-10T15:58:37.582Z,13.75
2022-08-10T16:03:54.680Z,26.85
2022-08-10T16:10:10.792Z,17.23
2022-08-10T16:14:36.646Z,16.52
2022-08-10T16:19:49.487Z,17.67
2022-08-10T16:24:52.473Z,17.13
2022-08-10T16:30:00.974Z,21.38
2022-08-10T16:35:09.845Z,21.00
2022-08-10T16:40:13.871Z,19.60
2022-08-10T16:45:25.003Z,19.20
2022-08-10T16:50:42.002Z,19.48
2022-08-10T16:55:50.969Z,20.00
2022-08-10T17:00:59.766Z,19.55
2022-08-10T17:06:10.844Z,20.45
2022-08-10T17:11:15.815Z,19.52
2022-08-10T17:16:18.636Z,19.83
2022-08-10T17:21:23.503Z,20.95
2022-08-10T17:26:37.011Z,21.70
2022-08-10T17:31:54.828Z,23.93
2022-08-10T17:37:02.729Z,23.15
2022-08-10T17:42:06.105Z,24.33
2022-08-10T17:47:11.281Z,23.58
2022-08-10T17:57:21.564Z,22.05
2022-08-10T18:02:28.422Z,22.60
2022-08-10T18:07:35.803Z,22.40
2022-08-10T18:12:48.398Z,22.25
2022-08-10T18:17:59.079Z,22.15
2022-08-10T18:23:04.022Z,22.80
2022-08-10T18:28:12.133Z,23.58
2022-08-10T18:33:16.356Z,23.27
2022-08-10T18:38:19.734Z,23.77
2022-08-10T18:44:05.546Z,23.00
2022-08-10T18:48:57.031Z,22.98
2022-08-10T18:54:05.690Z,23.38
2022-08-10T18:59:39.239Z,24.67
2022-08-10T19:05:30.137Z,24.15
2022-08-10T19:11:01.528Z,23.88
2022-08-10T19:16:15.098Z,22.60
2022-08-10T19:21:40.237Z,21.02
2022-08-10T19:27:04.488Z,19.77
2022-08-10T19:32:18.678Z,20.23
2022-08-10T19:38:00.743Z,18.60
2022-08-10T19:44:00.680Z,17.42
2022-08-10T19:48:54.052Z,17.42
2022-08-10T19:54:02.986Z,17.48
2022-08-10T19:59:11.346Z,17.40
2022-08-10T20:04:20.398Z,18.48
2022-08-10T20:09:35.034Z,19.30
2022-08-10T20:14:53.342Z,18.55
2022-08-10T20:19:59.409Z,21.13
2022-08-10T20:25:14.010Z,20.83
2022-08-10T20:30:17.605Z,22.70
2022-08-10T20:35:49.128Z,20.70
2022-08-10T20:41:27.505Z,22.05
2022-08-10T20:46:34.507Z,22.92
2022-08-10T20:52:00.463Z,23.70
2022-08-10T20:57:54.829Z,22.38
2022-08-10T21:03:21.015Z,22.73
2022-08-10T21:08:49.324Z,23.48
2022-08-10T21:14:19.162Z,23.30
2022-08-10T21:19:55.596Z,20.95
2022-08-10T21:25:04.050Z,20.48
2022-08-10T21:30:16.633Z,18.20
2022-08-10T21:35:41.866Z,15.88
2022-08-10T21:41:18.142Z,18.27
2022-08-10T21:47:04.770Z,19.13
2022-08-10T21:52:36.940Z,15.50
2022-08-10T21:58:06.705Z,16.13
2022-08-10T22:03:39.411Z,18.40
2022-08-10T22:09:04.309Z,18.20
2022-08-10T22:14:33.773Z,19.58
2022-08-10T22:20:03.077Z,18.70
2022-08-10T22:25:52.075Z,17.85
2022-08-10T22:37:12.653Z,18.48
2022-08-10T22:42:57.968Z,18.25
2022-08-10T22:48:23.873Z,34.33
2022-08-10T22:53:56.493Z,19.38
2022-08-10T22:58:59.240Z,16.80
2022-08-10T23:04:08.972Z,18.00
2022-08-10T23:09:14.754Z,19.10
2022-08-10T23:14:18.962Z,19.00
2022-08-10T23:19:26.288Z,18.60
2022-08-10T23:24:39.125Z,19.30
2022-08-10T23:30:09.873Z,20.20
2022-08-10T23:36:31.736Z,18.92
2022-08-10T23:40:36.806Z,19.38
2022-08-10T23:45:53.756Z,19.85
2022-08-10T23:51:02.728Z,17.25
2022-08-10T23:56:09.788Z,16.80
